createdAt,value
2023-02-17T00:01:22.133Z,20.30
2023-02-17T00:06:28.512Z,18.60
2023-02-17T00:11:32.389Z,19.00
2023-02-17T00:16:37.476Z,17.67
2023-02-17T00:21:40.887Z,18.33
2023-02-17T00:26:44.550Z,19.03
2023-02-17T00:31:49.696Z,16.57
2023-02-17T00:36:53.251Z,17.13
2023-02-17T00:41:56.595Z,16.03
2023-02-17T00:47:01.393Z,14.60
2023-02-17T00:52:04.881Z,17.63
2023-02-17T00:57:08.241Z,17.47
2023-02-17T01:02:13.124Z,15.03
2023-02-17T01:07:16.503Z,17.30
2023-02-17T01:12:20.167Z,16.57
2023-02-17T01:17:25.073Z,18.70
2023-02-17T01:22:28.790Z,18.63
2023-02-17T01:27:32.276Z,14.87
2023-02-17T01:32:38.293Z,15.33
2023-02-17T01:37:41.982Z,13.63
2023-02-17T01:42:46.110Z,13.40
2023-02-17T01:47:55.785Z,13.95
2023-02-17T01:53:02.135Z,14.93
2023-02-17T01:58:08.986Z,12.70
2023-02-17T02:03:15.504Z,14.13
2023-02-17T02:08:18.952Z,15.20
2023-02-17T02:13:22.339Z,18.03
2023-02-17T02:18:55.134Z,13.70
2023-02-17T02:24:07.861Z,17.13
2023-02-17T02:29:33.702Z,15.40
2023-02-17T02:34:43.463Z,13.23
2023-02-17T02:39:50.577Z,13.70
2023-02-17T02:44:53.954Z,12.60
2023-02-17T02:49:58.694Z,13.40
2023-02-17T03:00:21.092Z,14.97
2023-02-17T03:05:32.714Z,13.17
2023-02-17T03:10:36.322Z,15.33
2023-02-17T03:15:39.879Z,14.27
2023-02-17T03:20:50.456Z,15.60
2023-02-17T03:25:53.826Z,15.43
2023-02-17T03:30:57.664Z,18.30
2023-02-17T03:36:02.559Z,11.50
2023-02-17T03:41:06.187Z,11.87
2023-02-17T03:46:12.952Z,17.87
2023-02-17T03:51:20.067Z,16.20
2023-02-17T03:56:23.724Z,18.97
2023-02-17T04:01:27.178Z,14.70
2023-02-17T04:06:32.211Z,15.10
2023-02-17T04:11:35.785Z,12.57
2023-02-17T04:16:39.475Z,15.27
2023-02-17T04:21:44.426Z,15.30
2023-02-17T04:26:47.793Z,16.57
2023-02-17T04:31:51.430Z,16.33
2023-02-17T04:36:56.416Z,14.17
2023-02-17T04:41:59.956Z,14.77
2023-02-17T04:47:03.492Z,14.23
2023-02-17T04:52:08.527Z,16.07
2023-02-17T04:57:11.989Z,14.63
2023-02-17T05:02:15.396Z,17.93
2023-02-17T05:07:20.377Z,17.37
2023-02-17T05:12:23.756Z,16.50
2023-02-17T05:17:27.120Z,14.97
2023-02-17T05:22:32.062Z,15.27
2023-02-17T05:27:35.611Z,15.43
2023-02-17T05:32:39.129Z,15.97
2023-02-17T05:37:43.851Z,13.30
2023-02-17T05:47:50.587Z,17.03
2023-02-17T05:52:55.488Z,12.83
2023-02-17T05:57:58.920Z,16.77
2023-02-17T06:03:02.444Z,16.43
2023-02-17T06:08:07.524Z,17.90
2023-02-17T06:13:11.208Z,14.70
2023-02-17T06:18:15.107Z,14.80
2023-02-17T06:23:20.117Z,16.70
2023-02-17T06:28:23.647Z,14.95
2023-02-17T06:33:27.129Z,17.13
2023-02-17T06:38:32.257Z,16.67
2023-02-17T06:43:35.836Z,16.00
2023-02-17T06:48:39.431Z,14.97
2023-02-17T06:53:44.345Z,16.13
2023-02-17T06:58:48.099Z,15.20
2023-02-17T07:03:51.625Z,17.27
2023-02-17T07:08:56.874Z,15.45
2023-02-17T07:14:00.409Z,15.50
2023-02-17T07:19:04.123Z,17.00
2023-02-17T07:24:10.241Z,16.83
2023-02-17T07:34:17.187Z,17.67
2023-02-17T07:39:22.198Z,16.48
2023-02-17T07:44:25.574Z,18.17
2023-02-17T07:49:29.536Z,19.88
2023-02-17T07:54:34.519Z,18.10
2023-02-17T08:04:41.119Z,17.63
2023-02-17T08:10:03.747Z,20.77
2023-02-17T08:15:08.971Z,18.27
2023-02-17T08:20:15.988Z,18.35
2023-02-17T08:25:20.887Z,19.85
2023-02-17T08:30:24.419Z,18.42
2023-02-17T08:35:29.673Z,17.02
2023-02-17T08:40:34.502Z,21.92
2023-02-17T08:50:41.427Z,18.10
2023-02-17T08:55:49.456Z,19.92
2023-02-17T09:00:53.362Z,20.13
2023-02-17T09:05:57.083Z,23.73
2023-02-17T09:11:02.360Z,21.33
2023-02-17T09:16:06.800Z,20.50
2023-02-17T09:21:12.280Z,21.45
2023-02-17T09:26:19.375Z,24.50
2023-02-17T09:31:24.937Z,23.23
2023-02-17T09:36:30.712Z,24.77
2023-02-17T09:41:40.774Z,26.95
2023-02-17T09:47:00.924Z,23.25
2023-02-17T09:52:12.324Z,23.48
2023-02-17T09:57:22.170Z,22.90
2023-02-17T10:02:31.186Z,25.27
2023-02-17T10:07:39.566Z,25.63
2023-02-17T10:12:48.660Z,23.63
2023-02-17T10:17:58.597Z,24.40
2023-02-17T10:23:07.362Z,25.40
2023-02-17T10:28:19.819Z,26.42
2023-02-17T10:33:30.214Z,25.00
2023-02-17T10:38:46.096Z,25.45
2023-02-17T10:43:52.291Z,26.27
2023-02-17T10:48:57.280Z,28.48
2023-02-17T10:54:06.795Z,24.08
2023-02-17T10:59:18.258Z,25.50
2023-02-17T11:04:21.691Z,23.48
2023-02-17T11:09:28.972Z,22.83
2023-02-17T11:14:37.808Z,25.63
2023-02-17T11:19:41.553Z,22.75
2023-02-17T11:24:45.144Z,31.58
2023-02-17T11:29:49.957Z,27.80
2023-02-17T11:40:01.572Z,22.63
2023-02-17T11:45:19.966Z,19.17
2023-02-17T11:50:41.452Z,20.65
2023-02-17T11:55:55.837Z,19.20
2023-02-17T12:01:07.411Z,17.92
2023-02-17T12:06:16.147Z,21.00
2023-02-17T12:11:30.085Z,19.25
2023-02-17T12:16:47.104Z,25.07
2023-02-17T12:22:03.424Z,21.75
2023-02-17T12:27:17.368Z,18.17
2023-02-17T12:32:36.242Z,19.92
2023-02-17T12:37:48.488Z,24.25
2023-02-17T12:42:58.153Z,23.07
2023-02-17T12:48:07.121Z,22.13
2023-02-17T12:53:16.788Z,20.00
2023-02-17T12:58:23.382Z,23.85
2023-02-17T13:03:31.335Z,22.30
2023-02-17T13:08:42.554Z,23.55
2023-02-17T13:13:46.252Z,24.17
2023-02-17T13:18:53.144Z,26.02
2023-02-17T13:24:01.890Z,24.58
2023-02-17T13:29:12.699Z,23.25
2023-02-17T13:34:28.431Z,23.73
2023-02-17T13:39:35.388Z,24.98
2023-02-17T13:44:42.010Z,22.48
2023-02-17T13:49:53.944Z,25.65
2023-02-17T13:54:59.688Z,23.33
2023-02-17T14:00:11.697Z,24.80
2023-02-17T14:05:21.121Z,23.40
2023-02-17T14:10:28.184Z,25.60
2023-02-17T14:15:31.771Z,27.02
2023-02-17T14:20:37.966Z,27.48
2023-02-17T14:25:45.031Z,29.10
2023-02-17T14:30:49.132Z,29.40
2023-02-17T14:35:56.929Z,30.70
2023-02-17T14:41:01.412Z,29.52
2023-02-17T14:46:05.780Z,28.52
2023-02-17T14:51:14.717Z,28.63
2023-02-17T14:56:23.989Z,30.42
2023-02-17T15:01:27.968Z,30.90
2023-02-17T15:06:42.185Z,26.80
2023-02-17T15:11:49.043Z,31.52
2023-02-17T15:16:52.472Z,33.05
2023-02-17T15:22:01.432Z,27.73
2023-02-17T15:27:06.133Z,32.40
2023-02-17T15:32:18.337Z,32.80
2023-02-17T15:37:23.211Z,29.93
2023-02-17T15:47:32.784Z,30.90
2023-02-17T15:52:37.561Z,31.63
2023-02-17T16:02:45.744Z,28.30
2023-02-17T16:07:50.815Z,27.05
2023-02-17T16:12:56.840Z,27.88
2023-02-17T16:18:00.828Z,22.77
2023-02-17T16:23:05.598Z,26.33
2023-02-17T16:33:18.254Z,23.83
2023-02-17T16:38:24.979Z,26.02
2023-02-17T16:43:30.820Z,24.63
2023-02-17T16:48:37.400Z,22.03
2023-02-17T16:53:42.271Z,23.53
2023-02-17T16:58:46.604Z,24.50
2023-02-17T17:03:50.099Z,20.65
2023-02-17T17:08:55.510Z,22.40
2023-02-17T17:13:59.223Z,23.87
2023-02-17T17:19:03.486Z,25.60
2023-02-17T17:24:08.343Z,23.65
2023-02-17T17:29:13.691Z,27.57
2023-02-17T17:34:17.068Z,25.37
2023-02-17T17:39:24.621Z,29.37
2023-02-17T17:44:28.751Z,29.43
2023-02-17T17:49:32.240Z,25.80
2023-02-17T17:54:37.192Z,30.70
2023-02-17T17:59:40.567Z,27.20
2023-02-17T18:04:44.328Z,28.73
2023-02-17T18:09:49.379Z,28.67
2023-02-17T18:14:55.744Z,30.13
2023-02-17T18:19:59.455Z,32.07
2023-02-17T18:25:04.675Z,31.20
2023-02-17T18:30:10.672Z,30.33
2023-02-17T18:35:15.207Z,38.57
2023-02-17T18:40:21.714Z,41.00
2023-02-17T18:45:25.724Z,40.47
2023-02-17T18:50:33.197Z,41.30
2023-02-17T18:55:39.773Z,39.27
2023-02-17T19:00:43.139Z,37.53
2023-02-17T19:05:46.695Z,38.00
2023-02-17T19:10:52.118Z,42.37
2023-02-17T19:15:55.785Z,38.57
2023-02-17T19:20:59.228Z,38.10
2023-02-17T19:26:05.623Z,32.63
2023-02-17T19:31:11.554Z,34.67
2023-02-17T19:36:17.794Z,36.70
2023-02-17T19:41:23.012Z,43.00
2023-02-17T19:46:26.618Z,38.43
2023-02-17T19:51:29.962Z,37.60
2023-02-17T19:56:36.596Z,42.83
2023-02-17T20:01:42.937Z,42.03
2023-02-17T20:06:48.736Z,36.20
2023-02-17T20:11:53.744Z,32.87
2023-02-17T20:16:57.160Z,32.17
2023-02-17T20:22:01.367Z,37.10
2023-02-17T20:27:06.379Z,35.60
2023-02-17T20:32:09.859Z,36.77
2023-02-17T20:37:13.533Z,27.60
2023-02-17T20:42:18.479Z,36.90
2023-02-17T20:47:21.980Z,35.97
2023-02-17T20:52:25.729Z,40.88
2023-02-17T20:57:30.689Z,38.53
2023-02-17T21:02:34.247Z,32.90
2023-02-17T21:07:37.826Z,34.97
2023-02-17T21:12:42.752Z,30.87
2023-02-17T21:17:46.684Z,35.67
2023-02-17T21:22:50.155Z,31.15
2023-02-17T21:27:54.933Z,39.87
2023-02-17T21:32:58.471Z,32.47
2023-02-17T21:38:01.898Z,32.90
2023-02-17T21:43:23.904Z,31.63
2023-02-17T21:48:27.596Z,34.10
2023-02-17T21:53:30.944Z,33.97
2023-02-17T21:58:36.467Z,43.47
2023-02-17T22:03:39.876Z,36.50
2023-02-17T22:08:43.382Z,39.30
2023-02-17T22:13:49.238Z,34.03
2023-02-17T22:18:53.187Z,36.50
2023-02-17T22:23:56.608Z,38.10
2023-02-17T22:29:01.494Z,39.90
2023-02-17T22:34:07.276Z,42.80
2023-02-17T22:39:11.036Z,46.07
2023-02-17T22:44:15.911Z,40.33
2023-02-17T22:49:19.457Z,40.77
2023-02-17T22:54:22.948Z,46.13
2023-02-17T22:59:27.952Z,39.03
2023-02-17T23:04:31.541Z,49.63
2023-02-17T23:09:35.093Z,54.00
2023-02-17T23:14:41.338Z,37.23
2023-02-17T23:19:44.855Z,43.93
2023-02-17T23:24:48.882Z,49.50
2023-02-17T23:29:53.781Z,52.50
2023-02-17T23:34:57.185Z,44.93
2023-02-17T23:40:00.529Z,50.07
2023-02-17T23:45:05.841Z,34.00
2023-02-17T23:50:27.327Z,40.07
2023-02-17T23:55:30.684Z,42.13
